Time;durP1;ratioP1;P1;durP2;ratioP2;P2;SDS_P1;SDS_P2;PMS_P1;PMS_P2;Temp;Humidity;BMP_temperature;BMP_pressure;BME280_temperature;BME280_humidity;BME280_pressure;Samples;Min_cycle;Max_cycle;Signal;HPM_P1;HPM_P2
2024/04/07 00:01:34;;;;;;;;;;;14.90;99.90;;;;;;5014756;28;20412;-82
2024/04/07 00:04:03;;;;;;;;;;;15.00;99.90;;;;;;5028007;28;19917;-82
2024/04/07 00:06:32;;;;;;;;;;;15.10;99.90;;;;;;5047344;28;20011;-82
2024/04/07 00:08:58;;;;;;;;;;;15.20;99.90;;;;;;5026402;28;19921;-82
2024/04/07 00:11:24;;;;;;;;;;;15.30;99.90;;;;;;5030085;28;19920;-82
2024/04/07 00:13:51;;;;;;;;;;;15.40;99.90;;;;;;5025889;28;20408;-83
2024/04/07 00:16:18;;;;;;;;;;;15.30;99.90;;;;;;5044975;28;19924;-82
2024/04/07 00:18:43;;;;;;;;;;;15.40;99.90;;;;;;5031148;28;19925;-82
2024/04/07 00:21:09;;;;;;;;;;;15.40;99.90;;;;;;5013484;28;20033;-83
2024/04/07 00:23:35;;;;;;;;;;;15.40;99.90;;;;;;5013614;28;20369;-82
2024/04/07 00:26:00;;;;;;;;;;;15.40;99.90;;;;;;5012643;28;19968;-83
2024/04/07 00:28:26;;;;;;;;;;;15.30;99.90;;;;;;5032298;28;19920;-82
2024/04/07 00:30:51;;;;;;;;;;;15.30;99.90;;;;;;5028485;28;19952;-82
2024/04/07 00:33:17;;;;;;;;;;;15.40;99.90;;;;;;5026843;28;19923;-82
2024/04/07 00:36:02;;;;;;;;;;;15.30;99.90;;;;;;5031002;28;19928;-82
2024/04/07 00:38:28;;;;;;;;;;;15.40;99.90;;;;;;5046710;28;20007;-92
2024/04/07 00:40:56;;;;;;;;;;;15.40;99.90;;;;;;5048685;28;19927;-88
2024/04/07 00:43:21;;;;;;;;;;;15.50;99.90;;;;;;5046485;28;19926;-89
2024/04/07 00:45:47;;;;;;;;;;;15.60;99.90;;;;;;5049034;28;19924;-88
2024/04/07 00:48:17;;;;;;;;;;;15.80;99.90;;;;;;5045687;28;19935;-88
2024/04/07 00:50:50;;;;;;;;;;;16.10;99.90;;;;;;5043931;28;19920;-90
2024/04/07 00:53:16;;;;;;;;;;;16.30;99.90;;;;;;5044365;28;20015;-90
2024/04/07 00:55:42;;;;;;;;;;;17.30;99.90;;;;;;5031183;28;19968;-91
2024/04/07 00:58:08;;;;;;;;;;;16.60;99.90;;;;;;5047500;28;19955;-90
2024/04/07 01:00:34;;;;;;;;;;;16.70;99.90;;;;;;5050763;28;19920;-89
2024/04/07 01:03:00;;;;;;;;;;;16.80;99.90;;;;;;5048299;28;20379;-87
2024/04/07 01:05:25;;;;;;;;;;;16.90;99.90;;;;;;5050770;28;19924;-89
2024/04/07 01:07:51;;;;;;;;;;;17.00;99.90;;;;;;5048117;28;19920;-87
2024/04/07 01:10:17;;;;;;;;;;;17.10;99.90;;;;;;5047296;28;19928;-87
2024/04/07 01:12:52;;;;;;;;;;;17.20;99.90;;;;;;5048277;28;19917;-87
2024/04/07 01:15:18;;;;;;;;;;;17.30;99.90;;;;;;5049696;28;19933;-86
2024/04/07 01:17:44;;;;;;;;;;;17.30;99.90;;;;;;5047517;28;19921;-89
2024/04/07 01:20:10;;;;;;;;;;;17.30;99.90;;;;;;5011112;28;19923;-88
2024/04/07 01:22:36;;;;;;;;;;;17.30;99.90;;;;;;5014903;28;19920;-91
2024/04/07 01:25:06;;;;;;;;;;;17.30;99.90;;;;;;5028713;28;19920;-88
2024/04/07 01:27:31;;;;;;;;;;;17.20;99.90;;;;;;5028743;28;19925;-86
2024/04/07 01:29:57;;;;;;;;;;;17.30;99.90;;;;;;5049292;28;19927;-91
2024/04/07 01:32:23;;;;;;;;;;;17.10;99.90;;;;;;5032143;28;19916;-90
2024/04/07 01:34:49;;;;;;;;;;;17.10;99.90;;;;;;5031622;28;20371;-89
2024/04/07 01:37:14;;;;;;;;;;;17.00;99.90;;;;;;5031962;28;20000;-89
2024/04/07 01:39:40;;;;;;;;;;;16.90;99.90;;;;;;5015507;28;19928;-87
2024/04/07 01:42:06;;;;;;;;;;;16.90;99.90;;;;;;5017190;28;19924;-87
2024/04/07 01:44:32;;;;;;;;;;;16.90;99.90;;;;;;5035084;28;20436;-90
2024/04/07 01:46:58;;;;;;;;;;;16.90;99.90;;;;;;5028491;28;19988;-89
2024/04/07 01:49:23;;;;;;;;;;;16.90;99.90;;;;;;5045663;28;19935;-83
2024/04/07 01:51:49;;;;;;;;;;;16.90;99.90;;;;;;5014377;28;20291;-84
2024/04/07 01:54:15;;;;;;;;;;;16.90;99.90;;;;;;5031036;28;19962;-86
2024/04/07 01:56:41;;;;;;;;;;;16.70;99.90;;;;;;5029772;28;19924;-85
2024/04/07 01:59:10;;;;;;;;;;;16.70;99.90;;;;;;5031909;28;20263;-85
2024/04/07 02:01:36;;;;;;;;;;;16.60;99.90;;;;;;5034054;28;19983;-86
2024/04/07 02:04:03;;;;;;;;;;;16.40;99.90;;;;;;5035078;28;20386;-86
2024/04/07 02:06:28;;;;;;;;;;;16.10;99.90;;;;;;5020734;28;19925;-85
2024/04/07 02:08:57;;;;;;;;;;;15.90;99.90;;;;;;5036428;28;19920;-87
2024/04/07 02:11:23;;;;;;;;;;;15.70;99.90;;;;;;5019749;28;19917;-84
2024/04/07 02:13:49;;;;;;;;;;;15.40;99.90;;;;;;5034194;28;19924;-83
2024/04/07 02:16:14;;;;;;;;;;;15.30;99.90;;;;;;5017700;28;20448;-85
2024/04/07 02:18:40;;;;;;;;;;;15.30;99.90;;;;;;5020237;28;19994;-85
2024/04/07 02:21:06;;;;;;;;;;;15.00;99.90;;;;;;5034357;28;20355;-84
2024/04/07 02:23:32;;;;;;;;;;;15.00;99.90;;;;;;5034037;28;19924;-83
2024/04/07 02:25:57;;;;;;;;;;;14.80;99.90;;;;;;5018742;28;20354;-85
2024/04/07 02:28:23;;;;;;;;;;;14.90;99.90;;;;;;5036802;28;20635;-85
2024/04/07 02:30:49;;;;;;;;;;;14.80;99.90;;;;;;5051644;28;19920;-83
2024/04/07 02:33:14;;;;;;;;;;;14.80;99.90;;;;;;5036575;28;19917;-85
2024/04/07 02:35:40;;;;;;;;;;;14.80;99.90;;;;;;5035554;28;19925;-86
2024/04/07 02:38:09;;;;;;;;;;;14.80;99.90;;;;;;5034334;28;20374;-85
2024/04/07 02:40:34;;;;;;;;;;;14.70;99.90;;;;;;5033048;28;19920;-86
2024/04/07 02:43:00;;;;;;;;;;;14.70;99.90;;;;;;5030274;28;19975;-85
2024/04/07 02:48:10;;;;;;;;;;;14.80;99.90;;;;;;5033498;28;19971;-87
2024/04/07 02:50:36;;;;;;;;;;;14.70;99.90;;;;;;5033123;28;19976;-83
2024/04/07 02:53:02;;;;;;;;;;;14.70;99.90;;;;;;5031130;28;19924;-83
2024/04/07 02:55:28;;;;;;;;;;;14.80;99.90;;;;;;5033319;28;19929;-83
2024/04/07 02:57:54;;;;;;;;;;;14.60;99.90;;;;;;5031332;28;19982;-87
2024/04/07 03:00:20;;;;;;;;;;;14.60;99.90;;;;;;5029642;28;19932;-91
2024/04/07 03:02:46;;;;;;;;;;;14.50;99.90;;;;;;5019158;28;19924;-90
2024/04/07 03:05:12;;;;;;;;;;;14.50;99.90;;;;;;5026887;28;19940;-90
2024/04/07 03:07:38;;;;;;;;;;;14.50;99.90;;;;;;5034045;28;19982;-90
2024/04/07 03:10:04;;;;;;;;;;;14.50;99.90;;;;;;5035531;28;19927;-92
2024/04/07 03:12:30;;;;;;;;;;;14.50;99.90;;;;;;5042081;28;19928;-91
2024/04/07 03:14:57;;;;;;;;;;;14.50;99.90;;;;;;5036753;28;19935;-92
2024/04/07 03:17:23;;;;;;;;;;;14.50;99.90;;;;;;5055397;28;19916;-91
2024/04/07 03:19:49;;;;;;;;;;;14.50;99.90;;;;;;5034706;28;19923;-91
2024/04/07 03:22:14;;;;;;;;;;;14.50;99.90;;;;;;5037032;28;19917;-89
2024/04/07 03:24:40;;;;;;;;;;;14.50;99.90;;;;;;5021390;28;20382;-90
2024/04/07 03:27:06;;;;;;;;;;;14.50;99.90;;;;;;5037468;28;19924;-94
2024/04/07 03:29:32;;;;;;;;;;;14.40;99.90;;;;;;5035084;28;19935;-91
2024/04/07 03:31:58;;;;;;;;;;;14.80;99.90;;;;;;5034309;28;20317;-87
2024/04/07 03:34:23;;;;;;;;;;;14.30;99.90;;;;;;5027412;28;19925;-86
2024/04/07 03:36:49;;;;;;;;;;;14.10;99.90;;;;;;5032276;28;19916;-87
2024/04/07 03:39:15;;;;;;;;;;;13.90;99.90;;;;;;5030775;28;19924;-85
2024/04/07 03:41:41;;;;;;;;;;;13.90;99.90;;;;;;5027094;28;20255;-87
2024/04/07 03:44:08;;;;;;;;;;;13.70;99.90;;;;;;5032656;28;19923;-86
2024/04/07 03:46:43;;;;;;;;;;;13.60;99.90;;;;;;5031598;28;19923;-84
2024/04/07 03:49:09;;;;;;;;;;;13.60;99.90;;;;;;5030512;28;20397;-82
2024/04/07 03:51:35;;;;;;;;;;;13.50;99.90;;;;;;5032248;28;19981;-86
2024/04/07 03:54:00;;;;;;;;;;;13.40;99.90;;;;;;5016752;28;20366;-88
2024/04/07 03:56:29;;;;;;;;;;;13.30;99.90;;;;;;5033137;28;19921;-86
2024/04/07 04:14:27;;;;;;;;;;;12.90;99.90;;;;;;5673849;22;19924;-86
2024/04/07 04:16:52;;;;;;;;;;;13.00;99.90;;;;;;5014984;28;20055;-86
2024/04/07 04:19:18;;;;;;;;;;;13.00;99.90;;;;;;5032050;28;20355;-86
2024/04/07 04:21:44;;;;;;;;;;;13.00;99.90;;;;;;5032223;28;19924;-86
2024/04/07 04:24:09;;;;;;;;;;;13.00;99.90;;;;;;5029067;28;19917;-87
2024/04/07 04:26:35;;;;;;;;;;;13.60;99.90;;;;;;5029082;28;19929;-85
2024/04/07 04:29:00;;;;;;;;;;;13.10;99.90;;;;;;5028562;28;20294;-86
2024/04/07 04:31:26;;;;;;;;;;;13.00;99.90;;;;;;5011198;28;20256;-84
2024/04/07 04:33:52;;;;;;;;;;;13.00;99.90;;;;;;5012850;28;20375;-85
2024/04/07 04:36:17;;;;;;;;;;;13.10;99.90;;;;;;5029850;28;19931;-87
2024/04/07 04:38:43;;;;;;;;;;;13.10;99.90;;;;;;4997960;28;20018;-85
2024/04/07 04:41:09;;;;;;;;;;;13.10;99.90;;;;;;5014171;28;19984;-90
2024/04/07 04:43:35;;;;;;;;;;;13.10;99.90;;;;;;4998978;28;20350;-87
2024/04/07 04:46:03;;;;;;;;;;;13.10;99.90;;;;;;5015392;28;19917;-87
2024/04/07 04:48:29;;;;;;;;;;;13.10;99.90;;;;;;5012618;28;19968;-88
2024/04/07 04:50:55;;;;;;;;;;;13.10;99.90;;;;;;5012126;28;19925;-86
2024/04/07 04:53:24;;;;;;;;;;;13.10;99.90;;;;;;5015306;28;19917;-85
2024/04/07 04:55:50;;;;;;;;;;;13.00;99.90;;;;;;5000877;28;19923;-86
2024/04/07 04:58:16;;;;;;;;;;;13.10;99.90;;;;;;5017917;28;19921;-85
2024/04/07 05:00:46;;;;;;;;;;;13.00;99.90;;;;;;5018090;28;19921;-87
2024/04/07 05:03:12;;;;;;;;;;;13.10;99.90;;;;;;5034416;28;19924;-87
2024/04/07 05:05:38;;;;;;;;;;;13.10;99.90;;;;;;5018986;28;19921;-86
2024/04/07 05:08:07;;;;;;;;;;;13.00;99.90;;;;;;5017483;28;19943;-86
2024/04/07 05:10:34;;;;;;;;;;;13.00;99.90;;;;;;5001776;28;19925;-85
2024/04/07 05:13:00;;;;;;;;;;;13.20;99.90;;;;;;5019127;28;19917;-85
2024/04/07 05:15:26;;;;;;;;;;;13.10;99.90;;;;;;5021175;28;19925;-85
2024/04/07 05:17:53;;;;;;;;;;;13.10;99.90;;;;;;5021668;28;19917;-87
2024/04/07 05:20:18;;;;;;;;;;;13.10;99.90;;;;;;5034737;28;19932;-86
2024/04/07 05:22:44;;;;;;;;;;;13.10;99.90;;;;;;5003524;28;19917;-85
2024/04/07 05:25:14;;;;;;;;;;;13.20;99.90;;;;;;5017551;28;19917;-86
2024/04/07 05:56:12;;;;;;;;;;;13.30;99.90;;;;;;5047312;28;19928;-87
2024/04/07 05:58:38;;;;;;;;;;;13.30;99.90;;;;;;5013036;28;19960;-93
2024/04/07 06:01:03;;;;;;;;;;;13.30;99.90;;;;;;5024948;28;19917;-89
2024/04/07 06:03:29;;;;;;;;;;;13.40;99.90;;;;;;5045273;28;20026;-87
2024/04/07 06:05:55;;;;;;;;;;;13.50;99.90;;;;;;5031666;28;19939;-88
2024/04/07 06:08:20;;;;;;;;;;;13.50;99.90;;;;;;5013886;28;19925;-87
2024/04/07 06:10:46;;;;;;;;;;;13.60;99.90;;;;;;5031878;28;19924;-88
2024/04/07 06:13:11;;;;;;;;;;;14.00;99.90;;;;;;5014564;28;19924;-89
2024/04/07 06:15:37;;;;;;;;;;;13.60;99.90;;;;;;5013849;28;20310;-88
2024/04/07 06:18:04;;;;;;;;;;;13.60;99.90;;;;;;5009438;28;19943;-88
2024/04/07 06:20:29;;;;;;;;;;;13.60;99.90;;;;;;5015310;28;19925;-89
2024/04/07 06:22:58;;;;;;;;;;;13.60;99.90;;;;;;5014642;28;20266;-92
2024/04/07 06:25:23;;;;;;;;;;;13.60;99.90;;;;;;5030359;28;20367;-92
2024/04/07 06:27:56;;;;;;;;;;;13.50;99.90;;;;;;5015610;28;19932;-92
2024/04/07 06:30:30;;;;;;;;;;;13.50;99.90;;;;;;5018934;28;19929;-95
2024/04/07 06:33:04;;;;;;;;;;;13.60;99.90;;;;;;5035606;28;20393;-91
2024/04/07 06:35:33;;;;;;;;;;;13.60;99.90;;;;;;5035935;28;20402;-91
2024/04/07 06:37:58;;;;;;;;;;;13.60;99.90;;;;;;5035806;28;19924;-90
2024/04/07 06:40:26;;;;;;;;;;;13.50;99.90;;;;;;5033019;28;19917;-94
2024/04/07 06:42:56;;;;;;;;;;;13.40;99.90;;;;;;5034037;28;19928;-93
2024/04/07 06:45:25;;;;;;;;;;;13.60;99.90;;;;;;5034027;28;19917;-92
2024/04/07 06:48:03;;;;;;;;;;;13.40;99.90;;;;;;5033067;28;19917;-91
2024/04/07 06:50:32;;;;;;;;;;;13.60;99.90;;;;;;5019146;28;19928;-92
2024/04/07 06:52:58;;;;;;;;;;;13.50;99.90;;;;;;5034789;28;20499;-91
2024/04/07 06:55:28;;;;;;;;;;;13.80;99.90;;;;;;5035102;28;19925;-93
2024/04/07 06:57:58;;;;;;;;;;;14.00;99.90;;;;;;5037796;28;19978;-92
2024/04/07 07:00:27;;;;;;;;;;;14.10;99.90;;;;;;5029377;28;19960;-92
2024/04/07 07:02:52;;;;;;;;;;;14.20;99.90;;;;;;5052496;28;19921;-92
2024/04/07 07:05:18;;;;;;;;;;;14.30;99.90;;;;;;5020992;28;19920;-92
2024/04/07 07:07:50;;;;;;;;;;;14.40;99.90;;;;;;5037056;28;19924;-93
2024/04/07 07:10:18;;;;;;;;;;;14.60;99.90;;;;;;5036230;28;19970;-93
2024/04/07 07:12:49;;;;;;;;;;;14.70;99.90;;;;;;5026131;28;19966;-93
2024/04/07 07:15:18;;;;;;;;;;;14.70;99.90;;;;;;5051596;28;19909;-91
2024/04/07 07:17:53;;;;;;;;;;;15.00;99.90;;;;;;5058740;22;19920;-81
2024/04/07 07:20:19;;;;;;;;;;;14.90;99.90;;;;;;5036556;28;20293;-80
2024/04/07 07:22:44;;;;;;;;;;;14.90;99.90;;;;;;5037015;28;20439;-80
2024/04/07 07:25:10;;;;;;;;;;;15.00;99.90;;;;;;5040935;28;19917;-81
2024/04/07 07:27:36;;;;;;;;;;;15.10;99.90;;;;;;5042979;28;20003;-81
2024/04/07 07:30:01;;;;;;;;;;;15.10;99.90;;;;;;5041372;28;19928;-80
2024/04/07 07:32:27;;;;;;;;;;;15.20;99.90;;;;;;5031280;28;19920;-79
2024/04/07 07:34:53;;;;;;;;;;;15.30;99.90;;;;;;5034843;28;19920;-79
2024/04/07 07:37:18;;;;;;;;;;;15.30;99.90;;;;;;5037242;28;19923;-79
2024/04/07 07:39:44;;;;;;;;;;;15.40;99.90;;;;;;5038791;28;19921;-80
2024/04/07 07:42:10;;;;;;;;;;;15.40;99.90;;;;;;5038685;28;19931;-80
2024/04/07 07:44:36;;;;;;;;;;;15.50;99.90;;;;;;5039137;28;19979;-80
2024/04/07 07:47:02;;;;;;;;;;;15.60;99.90;;;;;;5026614;28;19928;-79
2024/04/07 07:49:28;;;;;;;;;;;15.60;99.90;;;;;;5033492;28;19921;-80
2024/04/07 07:51:58;;;;;;;;;;;15.60;99.90;;;;;;5028561;28;20382;-87
2024/04/07 07:54:24;;;;;;;;;;;15.70;99.90;;;;;;5020939;28;19917;-73
2024/04/07 07:56:50;;;;;;;;;;;15.70;99.90;;;;;;5019771;28;20358;-71
2024/04/07 07:59:15;;;;;;;;;;;15.80;99.90;;;;;;5022502;28;19921;-71
2024/04/07 08:01:41;;;;;;;;;;;15.90;99.90;;;;;;5037188;28;19967;-71
2024/04/07 08:04:07;;;;;;;;;;;15.90;99.90;;;;;;5038683;28;20375;-81
2024/04/07 08:06:32;;;;;;;;;;;16.00;99.90;;;;;;5041155;28;19975;-87
2024/04/07 08:08:58;;;;;;;;;;;16.00;99.90;;;;;;5048811;28;19917;-85
2024/04/07 08:11:24;;;;;;;;;;;16.00;99.90;;;;;;5052010;28;19970;-85
2024/04/07 08:13:50;;;;;;;;;;;16.10;99.90;;;;;;5051624;28;19939;-85
2024/04/07 08:16:16;;;;;;;;;;;16.10;99.90;;;;;;5038314;28;19920;-82
2024/04/07 08:18:42;;;;;;;;;;;16.20;99.90;;;;;;5050725;28;19931;-84
2024/04/07 08:21:07;;;;;;;;;;;16.40;99.90;;;;;;5045164;28;19924;-85
2024/04/07 08:23:33;;;;;;;;;;;16.40;99.90;;;;;;5021541;28;19964;-84
2024/04/07 08:25:58;;;;;;;;;;;16.50;99.90;;;;;;5043595;28;19935;-86
2024/04/07 08:28:24;;;;;;;;;;;16.60;99.90;;;;;;5044054;28;19928;-83
2024/04/07 08:30:50;;;;;;;;;;;16.50;99.90;;;;;;5040614;28;19924;-84
2024/04/07 08:33:16;;;;;;;;;;;16.60;99.90;;;;;;5041640;28;19917;-83
2024/04/07 08:35:42;;;;;;;;;;;16.60;99.90;;;;;;5043095;28;19966;-84
2024/04/07 08:38:08;;;;;;;;;;;16.70;99.90;;;;;;5045644;28;20265;-85
2024/04/07 08:40:33;;;;;;;;;;;16.80;99.90;;;;;;5044874;28;19931;-84
2024/04/07 08:42:59;;;;;;;;;;;16.80;99.90;;;;;;5043181;28;19928;-84
2024/04/07 08:45:26;;;;;;;;;;;16.80;99.90;;;;;;5051596;28;19917;-84
2024/04/07 08:47:52;;;;;;;;;;;16.70;99.90;;;;;;5042877;28;19924;-83
2024/04/07 08:50:18;;;;;;;;;;;16.70;99.90;;;;;;5038412;28;19921;-77
2024/04/07 08:52:44;;;;;;;;;;;16.70;99.90;;;;;;5040167;28;20402;-78
2024/04/07 08:55:10;;;;;;;;;;;16.70;99.90;;;;;;5036314;28;20505;-78
2024/04/07 08:57:36;;;;;;;;;;;16.80;99.90;;;;;;5020625;28;20378;-78
2024/04/07 09:00:06;;;;;;;;;;;17.10;99.90;;;;;;5037489;28;20271;-77
2024/04/07 09:02:32;;;;;;;;;;;17.20;99.90;;;;;;5040360;28;20438;-78
2024/04/07 09:04:59;;;;;;;;;;;17.20;99.90;;;;;;5036777;28;19921;-77
2024/04/07 09:07:24;;;;;;;;;;;17.10;99.90;;;;;;5022952;28;19959;-78
2024/04/07 09:09:50;;;;;;;;;;;16.90;99.90;;;;;;5030858;28;20351;-77
2024/04/07 09:12:15;;;;;;;;;;;16.80;99.90;;;;;;5036854;28;19924;-78
2024/04/07 09:14:45;;;;;;;;;;;16.70;99.90;;;;;;5029663;28;20421;-78
2024/04/07 09:17:10;;;;;;;;;;;16.70;99.90;;;;;;5035712;28;19952;-77
2024/04/07 09:19:37;;;;;;;;;;;16.70;99.90;;;;;;5041118;28;19975;-77
2024/04/07 09:22:03;;;;;;;;;;;16.60;99.90;;;;;;5042762;28;19947;-78
2024/04/07 09:24:32;;;;;;;;;;;16.70;99.90;;;;;;5029525;28;19931;-79
2024/04/07 09:26:59;;;;;;;;;;;16.80;99.90;;;;;;5022429;28;20437;-80
2024/04/07 09:29:27;;;;;;;;;;;17.00;99.90;;;;;;5037933;28;20106;-80
2024/04/07 09:31:53;;;;;;;;;;;17.10;99.90;;;;;;5038527;28;19924;-79
2024/04/07 09:34:19;;;;;;;;;;;17.20;99.90;;;;;;5032476;28;19917;-78
2024/04/07 09:36:44;;;;;;;;;;;17.30;99.90;;;;;;5036484;28;19935;-78
2024/04/07 09:39:11;;;;;;;;;;;17.50;99.90;;;;;;5030272;28;20543;-79
2024/04/07 09:41:36;;;;;;;;;;;17.70;99.90;;;;;;5032687;28;20590;-79
2024/04/07 09:44:06;;;;;;;;;;;17.90;99.90;;;;;;5035289;28;20011;-77
2024/04/07 09:46:36;;;;;;;;;;;18.00;99.90;;;;;;5036139;28;19920;-78
2024/04/07 09:49:02;;;;;;;;;;;18.00;99.90;;;;;;5032808;28;19925;-79
2024/04/07 09:51:30;;;;;;;;;;;18.00;99.90;;;;;;5033709;28;20383;-78
2024/04/07 09:54:01;;;;;;;;;;;17.90;99.90;;;;;;5040601;28;20213;-81
2024/04/07 09:56:28;;;;;;;;;;;17.90;99.90;;;;;;5036064;28;19932;-79
2024/04/07 09:58:54;;;;;;;;;;;18.00;99.90;;;;;;5037878;28;19947;-79
2024/04/07 10:01:21;;;;;;;;;;;18.00;99.90;;;;;;5040344;28;19960;-79
2024/04/07 10:03:50;;;;;;;;;;;18.00;99.90;;;;;;5036495;28;19917;-77
2024/04/07 10:06:16;;;;;;;;;;;18.00;99.90;;;;;;5042473;28;19921;-77
2024/04/07 10:08:43;;;;;;;;;;;17.90;99.90;;;;;;5032212;28;19967;-77
2024/04/07 10:11:15;;;;;;;;;;;17.70;99.90;;;;;;5041969;28;19931;-77
2024/04/07 10:13:41;;;;;;;;;;;17.70;99.90;;;;;;5035119;28;20370;-78
2024/04/07 10:16:07;;;;;;;;;;;17.80;99.90;;;;;;5034993;28;19968;-77
2024/04/07 10:18:33;;;;;;;;;;;17.90;99.90;;;;;;5034709;28;19970;-77
2024/04/07 10:20:59;;;;;;;;;;;18.00;99.90;;;;;;5040211;28;19968;-78
2024/04/07 10:23:28;;;;;;;;;;;17.90;99.90;;;;;;5031578;28;20313;-76
2024/04/07 10:26:03;;;;;;;;;;;17.80;99.90;;;;;;5034836;28;19962;-76
2024/04/07 10:28:34;;;;;;;;;;;17.80;99.90;;;;;;5041664;28;19921;-78
2024/04/07 10:31:00;;;;;;;;;;;17.80;99.90;;;;;;5038271;28;19925;-75
2024/04/07 10:33:32;;;;;;;;;;;17.90;99.90;;;;;;5037009;28;19963;-76
2024/04/07 10:35:58;;;;;;;;;;;18.00;99.90;;;;;;5041010;28;19928;-77
2024/04/07 10:38:24;;;;;;;;;;;18.00;99.90;;;;;;5009580;28;19959;-77
2024/04/07 10:40:55;;;;;;;;;;;18.10;99.90;;;;;;5038943;28;20014;-76
2024/04/07 10:43:20;;;;;;;;;;;18.40;99.90;;;;;;5040633;28;19928;-76
2024/04/07 10:45:47;;;;;;;;;;;18.50;99.90;;;;;;5037399;28;19920;-77
2024/04/07 10:48:12;;;;;;;;;;;18.60;99.90;;;;;;5042602;28;19927;-77
2024/04/07 10:50:38;;;;;;;;;;;18.70;99.90;;;;;;5038820;28;20578;-78
2024/04/07 10:53:07;;;;;;;;;;;18.90;99.90;;;;;;5039649;28;20062;-77
2024/04/07 10:55:33;;;;;;;;;;;19.00;99.90;;;;;;5037175;28;19954;-77
2024/04/07 10:57:59;;;;;;;;;;;19.00;99.90;;;;;;5039451;28;19979;-78
2024/04/07 11:00:25;;;;;;;;;;;19.00;99.90;;;;;;5025205;28;19921;-78
2024/04/07 11:02:52;;;;;;;;;;;19.10;99.90;;;;;;5040684;28;20600;-78
2024/04/07 11:05:18;;;;;;;;;;;19.00;99.90;;;;;;5017628;28;19975;-77
2024/04/07 11:07:44;;;;;;;;;;;18.90;99.90;;;;;;5033791;28;19968;-76
2024/04/07 11:10:09;;;;;;;;;;;18.80;99.90;;;;;;5042184;28;20015;-77
2024/04/07 11:12:36;;;;;;;;;;;18.80;99.90;;;;;;5032314;28;19967;-77
2024/04/07 11:15:13;;;;;;;;;;;18.80;99.90;;;;;;5032897;28;19939;-77
2024/04/07 11:17:38;;;;;;;;;;;18.90;99.90;;;;;;5036679;28;19956;-76
2024/04/07 11:20:04;;;;;;;;;;;19.10;99.90;;;;;;5032434;28;20374;-77
2024/04/07 11:22:30;;;;;;;;;;;19.00;99.90;;;;;;5024455;28;20003;-77
2024/04/07 11:24:55;;;;;;;;;;;19.00;99.90;;;;;;5032792;28;19921;-77
2024/04/07 11:27:21;;;;;;;;;;;19.10;99.90;;;;;;5038080;28;19960;-76
2024/04/07 11:29:48;;;;;;;;;;;19.10;99.90;;;;;;5033766;28;19962;-76
2024/04/07 11:32:14;;;;;;;;;;;19.10;99.90;;;;;;5035865;28;20382;-76
2024/04/07 11:34:39;;;;;;;;;;;19.20;99.90;;;;;;5034254;28;19931;-77
2024/04/07 11:37:05;;;;;;;;;;;19.10;99.90;;;;;;5030963;28;19925;-78
2024/04/07 11:39:31;;;;;;;;;;;19.10;99.90;;;;;;5035362;28;20308;-76
2024/04/07 11:41:57;;;;;;;;;;;19.00;99.90;;;;;;5036074;28;20020;-76
2024/04/07 11:44:22;;;;;;;;;;;18.80;99.90;;;;;;5039128;28;20011;-78
2024/04/07 11:46:48;;;;;;;;;;;18.70;99.90;;;;;;5037186;28;19925;-77
2024/04/07 11:49:13;;;;;;;;;;;18.70;99.90;;;;;;5034655;28;19916;-78
2024/04/07 11:51:39;;;;;;;;;;;18.70;99.90;;;;;;5034263;28;20126;-77
2024/04/07 11:54:05;;;;;;;;;;;18.80;99.90;;;;;;5047670;28;20372;-78
2024/04/07 11:56:30;;;;;;;;;;;18.90;99.90;;;;;;5034017;28;19931;-78
2024/04/07 11:58:56;;;;;;;;;;;19.00;99.90;;;;;;5029226;28;20436;-76
2024/04/07 12:01:21;;;;;;;;;;;19.00;99.90;;;;;;5028672;28;19927;-78
2024/04/07 12:03:47;;;;;;;;;;;19.10;99.90;;;;;;5032750;28;19921;-77
2024/04/07 12:06:12;;;;;;;;;;;19.10;99.90;;;;;;5033671;28;19936;-78
2024/04/07 12:08:38;;;;;;;;;;;19.10;99.90;;;;;;5034928;28;19978;-77
2024/04/07 12:11:04;;;;;;;;;;;19.30;99.90;;;;;;5034350;28;19921;-77
2024/04/07 12:13:30;;;;;;;;;;;19.50;99.90;;;;;;5042077;28;19920;-84
2024/04/07 12:15:55;;;;;;;;;;;19.60;99.90;;;;;;5046089;28;19921;-80
2024/04/07 12:18:21;;;;;;;;;;;19.90;99.90;;;;;;5042094;28;19952;-81
2024/04/07 12:20:46;;;;;;;;;;;19.90;99.90;;;;;;5037363;28;19917;-81
2024/04/07 12:23:12;;;;;;;;;;;19.80;99.90;;;;;;5038337;28;19923;-81
2024/04/07 12:25:37;;;;;;;;;;;20.10;99.90;;;;;;5039892;28;19928;-78
2024/04/07 12:28:04;;;;;;;;;;;20.00;99.90;;;;;;5038858;28;19971;-79
2024/04/07 12:30:29;;;;;;;;;;;20.00;99.90;;;;;;5042214;28;19931;-80
2024/04/07 12:32:55;;;;;;;;;;;19.80;99.90;;;;;;5037418;28;20106;-78
2024/04/07 12:35:20;;;;;;;;;;;19.70;99.90;;;;;;5036703;28;19921;-78
2024/04/07 12:37:46;;;;;;;;;;;19.80;99.90;;;;;;5029139;28;19970;-80
2024/04/07 12:40:12;;;;;;;;;;;20.00;99.90;;;;;;5043016;28;19917;-79
2024/04/07 12:42:39;;;;;;;;;;;20.20;99.90;;;;;;5038925;28;19968;-79
2024/04/07 12:45:05;;;;;;;;;;;20.20;99.80;;;;;;5036098;28;19986;-79
2024/04/07 12:47:30;;;;;;;;;;;20.10;99.90;;;;;;5039633;28;19921;-79
2024/04/07 12:49:56;;;;;;;;;;;20.20;99.70;;;;;;5035426;28;19962;-79
2024/04/07 12:52:22;;;;;;;;;;;20.30;98.80;;;;;;5040164;28;19966;-78
2024/04/07 12:54:48;;;;;;;;;;;20.30;98.10;;;;;;5034588;28;20249;-80
2024/04/07 12:57:14;;;;;;;;;;;20.20;98.30;;;;;;5036342;28;19924;-79
2024/04/07 12:59:39;;;;;;;;;;;20.10;99.70;;;;;;5041177;28;19920;-78
2024/04/07 13:02:05;;;;;;;;;;;20.20;98.90;;;;;;5019909;28;20690;-78
2024/04/07 13:04:31;;;;;;;;;;;20.20;98.60;;;;;;5035943;28;19971;-78
2024/04/07 13:06:56;;;;;;;;;;;20.00;98.30;;;;;;5036505;28;19921;-78
2024/04/07 13:09:22;;;;;;;;;;;19.90;99.10;;;;;;5040219;28;20499;-78
2024/04/07 13:11:48;;;;;;;;;;;19.80;98.50;;;;;;5034894;28;19925;-78
2024/04/07 13:14:14;;;;;;;;;;;19.90;98.80;;;;;;5025672;28;19917;-78
2024/04/07 13:16:40;;;;;;;;;;;20.00;98.60;;;;;;5032388;28;20400;-77
2024/04/07 13:19:06;;;;;;;;;;;20.10;99.10;;;;;;5035501;28;19924;-77
2024/04/07 13:21:31;;;;;;;;;;;20.10;98.50;;;;;;5036349;28;19925;-78
2024/04/07 13:23:57;;;;;;;;;;;20.50;99.10;;;;;;5038514;28;19920;-79
2024/04/07 13:26:22;;;;;;;;;;;20.80;99.10;;;;;;5019571;28;20436;-78
2024/04/07 13:28:48;;;;;;;;;;;21.10;98.80;;;;;;5033750;28;19979;-78
2024/04/07 13:31:13;;;;;;;;;;;21.00;98.90;;;;;;5035155;28;20413;-78
2024/04/07 13:33:39;;;;;;;;;;;21.70;99.60;;;;;;5038295;28;20378;-78
2024/04/07 13:36:05;;;;;;;;;;;21.90;97.70;;;;;;5036676;28;19974;-79
2024/04/07 13:38:30;;;;;;;;;;;21.90;98.00;;;;;;5039639;28;19956;-78
2024/04/07 13:40:56;;;;;;;;;;;21.90;96.60;;;;;;5040620;28;19921;-82
2024/04/07 13:43:22;;;;;;;;;;;21.90;96.40;;;;;;5038975;28;20359;-79
2024/04/07 13:45:48;;;;;;;;;;;21.90;96.50;;;;;;5037157;28;19925;-78
2024/04/07 13:48:14;;;;;;;;;;;21.90;96.80;;;;;;5033515;28;20383;-79
2024/04/07 13:50:39;;;;;;;;;;;22.00;96.60;;;;;;5034022;28;19924;-78
2024/04/07 13:53:06;;;;;;;;;;;22.10;97.50;;;;;;5037507;28;19916;-77
2024/04/07 13:55:32;;;;;;;;;;;22.30;95.60;;;;;;5037399;28;19925;-78
2024/04/07 13:57:57;;;;;;;;;;;22.40;94.90;;;;;;5042305;28;19923;-78
2024/04/07 14:00:24;;;;;;;;;;;22.60;96.10;;;;;;5044115;28;19921;-77
2024/04/07 14:02:50;;;;;;;;;;;22.80;94.30;;;;;;5041045;28;19987;-77
2024/04/07 14:05:16;;;;;;;;;;;22.80;93.80;;;;;;5045167;28;19917;-79
2024/04/07 14:07:42;;;;;;;;;;;22.80;94.30;;;;;;5044334;28;19928;-77
2024/04/07 14:10:07;;;;;;;;;;;22.90;93.90;;;;;;5043072;28;19917;-77
2024/04/07 14:12:33;;;;;;;;;;;23.00;94.10;;;;;;5041213;28;19917;-78
2024/04/07 14:14:58;;;;;;;;;;;23.30;95.00;;;;;;5025243;28;19929;-77
2024/04/07 14:17:24;;;;;;;;;;;23.50;94.10;;;;;;5039480;28;19939;-77
2024/04/07 14:19:50;;;;;;;;;;;23.60;93.70;;;;;;5041177;28;19933;-78
2024/04/07 14:22:15;;;;;;;;;;;23.70;93.80;;;;;;5042585;28;20078;-79
2024/04/07 14:24:42;;;;;;;;;;;23.90;94.70;;;;;;5038289;28;19943;-77
2024/04/07 14:27:07;;;;;;;;;;;24.20;94.30;;;;;;5042909;28;19925;-78
2024/04/07 14:29:34;;;;;;;;;;;24.40;92.90;;;;;;5038173;28;19917;-79
2024/04/07 14:32:00;;;;;;;;;;;24.50;91.50;;;;;;5042359;28;19932;-77
2024/04/07 14:34:25;;;;;;;;;;;24.90;93.80;;;;;;5044744;28;19920;-79
2024/04/07 14:36:51;;;;;;;;;;;25.10;92.40;;;;;;5041236;28;19921;-77
2024/04/07 14:39:17;;;;;;;;;;;25.00;92.20;;;;;;5046217;28;19917;-78
2024/04/07 14:41:43;;;;;;;;;;;24.90;91.40;;;;;;5042703;28;19927;-77
2024/04/07 14:44:08;;;;;;;;;;;24.60;90.60;;;;;;5049557;28;20045;-78
2024/04/07 14:46:34;;;;;;;;;;;24.40;90.90;;;;;;5045784;28;19917;-79
2024/04/07 14:49:00;;;;;;;;;;;24.60;91.10;;;;;;5023690;28;19920;-78
2024/04/07 14:51:25;;;;;;;;;;;24.70;90.40;;;;;;5047766;28;19916;-78
2024/04/07 14:53:51;;;;;;;;;;;24.80;90.70;;;;;;5043619;28;20290;-79
2024/04/07 14:56:17;;;;;;;;;;;25.10;91.40;;;;;;5045835;28;19928;-79
2024/04/07 14:58:43;;;;;;;;;;;25.60;91.50;;;;;;5042175;28;20522;-78